Morejarl — LLWD — position and weather

sailwx.info

Track history (hours):
 
Tides and Currents Weather Stations Pressure Air Temp Water Temp Dewpoint Dewpoint Depression Visibility Wind Speed Wind Dir Waves Ship Positions

Morejarl

Last reported at 2014-Jul-28 06:31 UTC. Time now 2014-Jul-28 12:20 UTC.
Position N 63°29' E 010°02'.

Length 35 m; draft 1.9 m.

Type: High speed craft. MMSI: 258561000.

Date/timePositionNaut miles runAvg speedWind from/ knotsBaromVisibWave heightAir tempDewpointWater temp
2014-Jul-28 06:31N 63°29' E 010°02'1010.4
2014-Jul-28 05:33N 63°26' E 010°24'1 0.1
2014-Jul-27 18:33N 63°27' E 010°22'7 7.3
2014-Jul-27 17:33N 63°28' E 010°06'6820.0
2014-Jul-27 14:11N 63°07' E 007°44'6618.0
2014-Jul-27 10:32N 63°29' E 010°02'1010.2
2014-Jul-27 09:33N 63°26' E 010°24'0 0.0
2014-Jul-26 19:33N 63°26' E 010°23'0 0.3
2014-Jul-26 18:33N 63°26' E 010°24'0 0.0
2014-Jul-26 17:33N 63°26' E 010°24'0 0.0
2014-Jul-26 16:33N 63°26' E 010°24'1 0.0
2014-Jul-25 14:33N 63°27' E 010°22'0 0.3
2014-Jul-25 13:33N 63°27' E 010°21'43 8.0
2014-Jul-25 08:13N 63°26' E 008°45'3420.4
2014-Jul-25 06:32N 63°29' E 010°02'1010.4
2014-Jul-25 05:34N 63°26' E 010°24'10 1.0
2014-Jul-24 19:22N 63°29' E 010°02'1012.4
2014-Jul-24 18:33N 63°26' E 010°24'8 1.0
2014-Jul-24 10:33N 63°28' E 010°07'8 7.9
2014-Jul-24 09:33N 63°26' E 010°24'6111.7
2014-Jul-24 04:17N 63°17' E 008°08'0 0.0
2014-Jul-24 00:25N 63°17' E 008°08'0 0.0
2014-Jul-23 22:17N 63°17' E 008°08'0 0.0
2014-Jul-23 17:25N 63°17' E 008°08'6121.3
2014-Jul-23 14:33N 63°26' E 010°22'1 0.7
2014-Jul-23 13:33N 63°26' E 010°24'0 0.0
2014-Jul-23 12:33N 63°26' E 010°24'0 0.0
2014-Jul-23 11:33N 63°26' E 010°24'0 0.0
2014-Jul-23 10:33N 63°26' E 010°24'0 0.0
2014-Jul-23 09:33N 63°26' E 010°24'0 0.0
2014-Jul-23 08:33N 63°26' E 010°24'0 0.0
2014-Jul-23 07:33N 63°26' E 010°24'0 0.0
2014-Jul-23 06:33N 63°26' E 010°24'0 0.0
2014-Jul-23 05:33N 63°26' E 010°24'0 0.0
2014-Jul-23 04:33N 63°26' E 010°24'0 0.0
2014-Jul-23 03:33N 63°26' E 010°24'0 0.0
2014-Jul-23 02:33N 63°26' E 010°24'0 0.0
2014-Jul-23 01:33N 63°26' E 010°24'0 0.0
2014-Jul-23 00:33N 63°26' E 010°24'0 0.0
2014-Jul-22 23:33N 63°26' E 010°24'0 0.0
2014-Jul-22 22:33N 63°26' E 010°24'0 0.0
2014-Jul-22 21:33N 63°26' E 010°24'0 0.0
2014-Jul-22 20:33N 63°26' E 010°24'0 0.0
2014-Jul-22 19:33N 63°26' E 010°24'0 0.0
2014-Jul-22 18:33N 63°26' E 010°24'0 0.0
2014-Jul-22 17:33N 63°26' E 010°24'0 0.0
2014-Jul-22 16:33N 63°26' E 010°24'0 0.0
2014-Jul-22 15:33N 63°26' E 010°24'0 0.0
2014-Jul-22 14:33N 63°26' E 010°24'0 0.0
2014-Jul-22 13:33N 63°26' E 010°24'0 0.0
2014-Jul-22 12:33N 63°26' E 010°24'0 0.0
2014-Jul-22 11:33N 63°26' E 010°24'0 0.0
2014-Jul-22 10:33N 63°26' E 010°24'0 0.0
2014-Jul-22 09:33N 63°26' E 010°24'0 0.0
2014-Jul-22 08:33N 63°26' E 010°24'0 0.0
2014-Jul-22 07:33N 63°26' E 010°24'0 0.0
2014-Jul-22 06:33N 63°26' E 010°24'0 0.0
2014-Jul-22 05:33N 63°26' E 010°24'0 0.0
2014-Jul-22 04:33N 63°26' E 010°24'0 0.0
2014-Jul-22 03:33N 63°26' E 010°24'0 0.0
2014-Jul-22 02:33N 63°26' E 010°24'0 0.0
2014-Jul-22 01:33N 63°26' E 010°24'0 0.0
2014-Jul-22 00:33N 63°26' E 010°24'0 0.0
2014-Jul-21 23:33N 63°26' E 010°24'0 0.0
2014-Jul-21 22:33N 63°26' E 010°24'0 0.0
2014-Jul-21 21:33N 63°26' E 010°24'0 0.0
2014-Jul-21 20:33N 63°26' E 010°24'0 0.0
2014-Jul-21 20:18N 63°26' E 010°24'0 0.0
2014-Jul-21 19:33N 63°26' E 010°24'0 0.0
2014-Jul-21 18:33N 63°26' E 010°24'0 0.0
2014-Jul-21 17:33N 63°26' E 010°24'0 0.0
2014-Jul-21 16:33N 63°26' E 010°24'0 0.0
2014-Jul-21 15:33N 63°26' E 010°24'0 0.0
2014-Jul-21 14:33N 63°26' E 010°24'0 0.0
2014-Jul-21 13:33N 63°26' E 010°24'0 0.0
2014-Jul-21 12:33N 63°26' E 010°24'0 0.0
2014-Jul-21 11:33N 63°26' E 010°24'0 0.0
2014-Jul-21 10:33N 63°26' E 010°24'0 0.0
2014-Jul-21 09:33N 63°26' E 010°24'0 0.0
2014-Jul-21 08:33N 63°26' E 010°24'0 0.0
2014-Jul-21 07:33N 63°26' E 010°24'0 0.0
2014-Jul-21 06:33N 63°26' E 010°24'0 0.0
2014-Jul-21 05:33N 63°26' E 010°24'0 0.0
2014-Jul-21 04:33N 63°26' E 010°24'0 0.0
2014-Jul-21 03:33N 63°26' E 010°24'0 0.0
2014-Jul-21 02:33N 63°26' E 010°24'0 0.0
2014-Jul-21 01:33N 63°26' E 010°24'0 0.0
2014-Jul-21 00:33N 63°26' E 010°24'0 0.0
2014-Jul-20 23:33N 63°26' E 010°24'0 0.0
2014-Jul-20 22:33N 63°26' E 010°24'0 0.0
2014-Jul-20 21:33N 63°26' E 010°24'0 0.0
2014-Jul-20 20:33N 63°26' E 010°24'0 0.0
2014-Jul-20 19:33N 63°26' E 010°24'0 0.0
2014-Jul-20 18:33N 63°26' E 010°24'0 0.0
2014-Jul-20 17:33N 63°26' E 010°24'0 0.0
2014-Jul-20 16:33N 63°26' E 010°24'0 0.0
2014-Jul-20 15:33N 63°26' E 010°24'0 0.0
2014-Jul-20 14:33N 63°26' E 010°24'0 0.0
2014-Jul-20 13:33N 63°26' E 010°24'0 0.0
2014-Jul-20 12:33N 63°26' E 010°24'0 0.0
2014-Jul-20 11:33N 63°26' E 010°24'0 0.0
2014-Jul-20 10:33N 63°26' E 010°24'0 0.0
2014-Jul-20 09:33N 63°26' E 010°24'0 0.0
2014-Jul-20 08:33N 63°26' E 010°24'0 0.0
2014-Jul-20 07:33N 63°26' E 010°24'0 0.0
2014-Jul-20 06:33N 63°26' E 010°24'0 0.0
2014-Jul-20 05:33N 63°26' E 010°24'0 0.0
2014-Jul-20 04:33N 63°26' E 010°24'0 0.0
2014-Jul-20 03:33N 63°26' E 010°24'0 0.0
2014-Jul-20 02:33N 63°26' E 010°24'0 0.0
2014-Jul-20 01:33N 63°26' E 010°24'0 0.0
2014-Jul-20 00:33N 63°26' E 010°24'0 0.0
2014-Jul-19 23:33N 63°26' E 010°24'0 0.0
2014-Jul-19 22:33N 63°26' E 010°24'0 0.0
2014-Jul-19 21:33N 63°26' E 010°24'0 0.0
2014-Jul-19 20:33N 63°26' E 010°24'0 0.0
2014-Jul-19 19:33N 63°26' E 010°24'0 0.0
2014-Jul-19 18:33N 63°26' E 010°24'0 0.0
2014-Jul-19 17:33N 63°26' E 010°24'0 0.0
2014-Jul-19 16:33N 63°26' E 010°24'0 0.0
2014-Jul-19 15:33N 63°26' E 010°24'0 0.0
2014-Jul-19 14:33N 63°26' E 010°24'0 0.0
2014-Jul-19 13:33N 63°26' E 010°24'0 0.0
2014-Jul-19 12:33N 63°26' E 010°24'0 0.0
2014-Jul-19 11:33N 63°26' E 010°24'0 0.0
2014-Jul-19 10:33N 63°26' E 010°24'0 0.0
2014-Jul-19 09:33N 63°26' E 010°24'0 0.0
2014-Jul-19 08:33N 63°26' E 010°24'0 0.0
2014-Jul-19 07:33N 63°26' E 010°24'0 0.0
2014-Jul-19 06:33N 63°26' E 010°24'0 0.0
2014-Jul-19 05:33N 63°26' E 010°24'0 0.0
2014-Jul-19 04:33N 63°26' E 010°24'0 0.0
2014-Jul-19 03:33N 63°26' E 010°24'0 0.0
2014-Jul-19 02:33N 63°26' E 010°24'0 0.0
2014-Jul-19 01:33N 63°26' E 010°24'0 0.0
2014-Jul-19 00:33N 63°26' E 010°24'0 0.0
2014-Jul-18 23:33N 63°26' E 010°24'0 0.0
2014-Jul-18 22:33N 63°26' E 010°24'0 0.0
2014-Jul-18 21:33N 63°26' E 010°24'0 0.0
2014-Jul-18 20:33N 63°26' E 010°24'0 0.0
2014-Jul-18 19:33N 63°26' E 010°24'0 0.0
2014-Jul-18 18:33N 63°26' E 010°24'0 0.0
2014-Jul-18 17:33N 63°26' E 010°24'0 0.0
2014-Jul-18 16:34N 63°26' E 010°24'0 0.0
2014-Jul-18 15:34N 63°26' E 010°24'0 0.0
2014-Jul-18 14:34N 63°26' E 010°24'0 0.0
2014-Jul-18 13:34N 63°26' E 010°24'0 0.0
2014-Jul-18 12:34N 63°26' E 010°24'0 0.0
2014-Jul-18 11:34N 63°26' E 010°24'0 0.0
2014-Jul-18 10:34N 63°26' E 010°24'0 0.0
2014-Jul-18 09:34N 63°26' E 010°24'0 0.0
2014-Jul-18 08:34N 63°26' E 010°24'0 0.0
2014-Jul-18 07:34N 63°26' E 010°24'0 0.0
2014-Jul-18 06:34N 63°26' E 010°24'  
Track history (hours):
 
Tides and Currents Weather Stations Pressure Air Temp Water Temp Dewpoint Dewpoint Depression Visibility Wind Speed Wind Dir Waves Ship Positions

Morejarl

Last reported at 2014-Jul-28 06:31 UTC. Time now 2014-Jul-28 12:20 UTC.
Position N 63°29' E 010°02'.

Length 35 m; draft 1.9 m.

Type: High speed craft. MMSI: 258561000.

Date/timePositionNaut miles runAvg speedWind from/ knotsBaromVisibWave heightAir tempDewpointWater temp
2014-Jul-28 06:31N 63°29' E 010°02'1010.4
2014-Jul-28 05:33N 63°26' E 010°24'1 0.1
2014-Jul-27 18:33N 63°27' E 010°22'7 7.3
2014-Jul-27 17:33N 63°28' E 010°06'6820.0
2014-Jul-27 14:11N 63°07' E 007°44'6618.0
2014-Jul-27 10:32N 63°29' E 010°02'1010.2
2014-Jul-27 09:33N 63°26' E 010°24'0 0.0
2014-Jul-26 19:33N 63°26' E 010°23'0 0.3
2014-Jul-26 18:33N 63°26' E 010°24'0 0.0
2014-Jul-26 17:33N 63°26' E 010°24'0 0.0
2014-Jul-26 16:33N 63°26' E 010°24'1 0.0
2014-Jul-25 14:33N 63°27' E 010°22'0 0.3
2014-Jul-25 13:33N 63°27' E 010°21'43 8.0
2014-Jul-25 08:13N 63°26' E 008°45'3420.4
2014-Jul-25 06:32N 63°29' E 010°02'1010.4
2014-Jul-25 05:34N 63°26' E 010°24'10 1.0
2014-Jul-24 19:22N 63°29' E 010°02'1012.4
2014-Jul-24 18:33N 63°26' E 010°24'8 1.0
2014-Jul-24 10:33N 63°28' E 010°07'8 7.9
2014-Jul-24 09:33N 63°26' E 010°24'6111.7
2014-Jul-24 04:17N 63°17' E 008°08'0 0.0
2014-Jul-24 00:25N 63°17' E 008°08'0 0.0
2014-Jul-23 22:17N 63°17' E 008°08'0 0.0
2014-Jul-23 17:25N 63°17' E 008°08'6121.3
2014-Jul-23 14:33N 63°26' E 010°22'1 0.7
2014-Jul-23 13:33N 63°26' E 010°24'0 0.0
2014-Jul-23 12:33N 63°26' E 010°24'0 0.0
2014-Jul-23 11:33N 63°26' E 010°24'0 0.0
2014-Jul-23 10:33N 63°26' E 010°24'0 0.0
2014-Jul-23 09:33N 63°26' E 010°24'0 0.0
2014-Jul-23 08:33N 63°26' E 010°24'0 0.0
2014-Jul-23 07:33N 63°26' E 010°24'0 0.0
2014-Jul-23 06:33N 63°26' E 010°24'0 0.0
2014-Jul-23 05:33N 63°26' E 010°24'0 0.0
2014-Jul-23 04:33N 63°26' E 010°24'0 0.0
2014-Jul-23 03:33N 63°26' E 010°24'0 0.0
2014-Jul-23 02:33N 63°26' E 010°24'0 0.0
2014-Jul-23 01:33N 63°26' E 010°24'0 0.0
2014-Jul-23 00:33N 63°26' E 010°24'0 0.0
2014-Jul-22 23:33N 63°26' E 010°24'0 0.0
2014-Jul-22 22:33N 63°26' E 010°24'0 0.0
2014-Jul-22 21:33N 63°26' E 010°24'0 0.0
2014-Jul-22 20:33N 63°26' E 010°24'0 0.0
2014-Jul-22 19:33N 63°26' E 010°24'0 0.0
2014-Jul-22 18:33N 63°26' E 010°24'0 0.0
2014-Jul-22 17:33N 63°26' E 010°24'0 0.0
2014-Jul-22 16:33N 63°26' E 010°24'0 0.0
2014-Jul-22 15:33N 63°26' E 010°24'0 0.0
2014-Jul-22 14:33N 63°26' E 010°24'0 0.0
2014-Jul-22 13:33N 63°26' E 010°24'0 0.0
2014-Jul-22 12:33N 63°26' E 010°24'0 0.0
2014-Jul-22 11:33N 63°26' E 010°24'0 0.0
2014-Jul-22 10:33N 63°26' E 010°24'0 0.0
2014-Jul-22 09:33N 63°26' E 010°24'0 0.0
2014-Jul-22 08:33N 63°26' E 010°24'0 0.0
2014-Jul-22 07:33N 63°26' E 010°24'0 0.0
2014-Jul-22 06:33N 63°26' E 010°24'0 0.0
2014-Jul-22 05:33N 63°26' E 010°24'0 0.0
2014-Jul-22 04:33N 63°26' E 010°24'0 0.0
2014-Jul-22 03:33N 63°26' E 010°24'0 0.0
2014-Jul-22 02:33N 63°26' E 010°24'0 0.0
2014-Jul-22 01:33N 63°26' E 010°24'0 0.0
2014-Jul-22 00:33N 63°26' E 010°24'0 0.0
2014-Jul-21 23:33N 63°26' E 010°24'0 0.0
2014-Jul-21 22:33N 63°26' E 010°24'0 0.0
2014-Jul-21 21:33N 63°26' E 010°24'0 0.0
2014-Jul-21 20:33N 63°26' E 010°24'0 0.0
2014-Jul-21 20:18N 63°26' E 010°24'0 0.0
2014-Jul-21 19:33N 63°26' E 010°24'0 0.0
2014-Jul-21 18:33N 63°26' E 010°24'0 0.0
2014-Jul-21 17:33N 63°26' E 010°24'0 0.0
2014-Jul-21 16:33N 63°26' E 010°24'0 0.0
2014-Jul-21 15:33N 63°26' E 010°24'0 0.0
2014-Jul-21 14:33N 63°26' E 010°24'0 0.0
2014-Jul-21 13:33N 63°26' E 010°24'0 0.0
2014-Jul-21 12:33N 63°26' E 010°24'0 0.0
2014-Jul-21 11:33N 63°26' E 010°24'0 0.0
2014-Jul-21 10:33N 63°26' E 010°24'0 0.0
2014-Jul-21 09:33N 63°26' E 010°24'0 0.0
2014-Jul-21 08:33N 63°26' E 010°24'0 0.0
2014-Jul-21 07:33N 63°26' E 010°24'0 0.0
2014-Jul-21 06:33N 63°26' E 010°24'0 0.0
2014-Jul-21 05:33N 63°26' E 010°24'0 0.0
2014-Jul-21 04:33N 63°26' E 010°24'0 0.0
2014-Jul-21 03:33N 63°26' E 010°24'0 0.0
2014-Jul-21 02:33N 63°26' E 010°24'0 0.0
2014-Jul-21 01:33N 63°26' E 010°24'0 0.0
2014-Jul-21 00:33N 63°26' E 010°24'0 0.0
2014-Jul-20 23:33N 63°26' E 010°24'0 0.0
2014-Jul-20 22:33N 63°26' E 010°24'0 0.0
2014-Jul-20 21:33N 63°26' E 010°24'0 0.0
2014-Jul-20 20:33N 63°26' E 010°24'0 0.0
2014-Jul-20 19:33N 63°26' E 010°24'0 0.0
2014-Jul-20 18:33N 63°26' E 010°24'0 0.0
2014-Jul-20 17:33N 63°26' E 010°24'0 0.0
2014-Jul-20 16:33N 63°26' E 010°24'0 0.0
2014-Jul-20 15:33N 63°26' E 010°24'0 0.0
2014-Jul-20 14:33N 63°26' E 010°24'0 0.0
2014-Jul-20 13:33N 63°26' E 010°24'0 0.0
2014-Jul-20 12:33N 63°26' E 010°24'0 0.0
2014-Jul-20 11:33N 63°26' E 010°24'0 0.0
2014-Jul-20 10:33N 63°26' E 010°24'0 0.0
2014-Jul-20 09:33N 63°26' E 010°24'0 0.0
2014-Jul-20 08:33N 63°26' E 010°24'0 0.0
2014-Jul-20 07:33N 63°26' E 010°24'0 0.0
2014-Jul-20 06:33N 63°26' E 010°24'0 0.0
2014-Jul-20 05:33N 63°26' E 010°24'0 0.0
2014-Jul-20 04:33N 63°26' E 010°24'0 0.0
2014-Jul-20 03:33N 63°26' E 010°24'0 0.0
2014-Jul-20 02:33N 63°26' E 010°24'0 0.0
2014-Jul-20 01:33N 63°26' E 010°24'0 0.0
2014-Jul-20 00:33N 63°26' E 010°24'0 0.0
2014-Jul-19 23:33N 63°26' E 010°24'0 0.0
2014-Jul-19 22:33N 63°26' E 010°24'0 0.0
2014-Jul-19 21:33N 63°26' E 010°24'0 0.0
2014-Jul-19 20:33N 63°26' E 010°24'0 0.0
2014-Jul-19 19:33N 63°26' E 010°24'0 0.0
2014-Jul-19 18:33N 63°26' E 010°24'0 0.0
2014-Jul-19 17:33N 63°26' E 010°24'0 0.0
2014-Jul-19 16:33N 63°26' E 010°24'0 0.0
2014-Jul-19 15:33N 63°26' E 010°24'0 0.0
2014-Jul-19 14:33N 63°26' E 010°24'0 0.0
2014-Jul-19 13:33N 63°26' E 010°24'0 0.0
2014-Jul-19 12:33N 63°26' E 010°24'0 0.0
2014-Jul-19 11:33N 63°26' E 010°24'0 0.0
2014-Jul-19 10:33N 63°26' E 010°24'0 0.0
2014-Jul-19 09:33N 63°26' E 010°24'0 0.0
2014-Jul-19 08:33N 63°26' E 010°24'0 0.0
2014-Jul-19 07:33N 63°26' E 010°24'0 0.0
2014-Jul-19 06:33N 63°26' E 010°24'0 0.0
2014-Jul-19 05:33N 63°26' E 010°24'0 0.0
2014-Jul-19 04:33N 63°26' E 010°24'0 0.0
2014-Jul-19 03:33N 63°26' E 010°24'0 0.0
2014-Jul-19 02:33N 63°26' E 010°24'0 0.0
2014-Jul-19 01:33N 63°26' E 010°24'0 0.0
2014-Jul-19 00:33N 63°26' E 010°24'0 0.0
2014-Jul-18 23:33N 63°26' E 010°24'0 0.0
2014-Jul-18 22:33N 63°26' E 010°24'0 0.0
2014-Jul-18 21:33N 63°26' E 010°24'0 0.0
2014-Jul-18 20:33N 63°26' E 010°24'0 0.0
2014-Jul-18 19:33N 63°26' E 010°24'0 0.0
2014-Jul-18 18:33N 63°26' E 010°24'0 0.0
2014-Jul-18 17:33N 63°26' E 010°24'0 0.0
2014-Jul-18 16:34N 63°26' E 010°24'0 0.0
2014-Jul-18 15:34N 63°26' E 010°24'0 0.0
2014-Jul-18 14:34N 63°26' E 010°24'0 0.0
2014-Jul-18 13:34N 63°26' E 010°24'0 0.0
2014-Jul-18 12:34N 63°26' E 010°24'0 0.0
2014-Jul-18 11:34N 63°26' E 010°24'0 0.0
2014-Jul-18 10:34N 63°26' E 010°24'0 0.0
2014-Jul-18 09:34N 63°26' E 010°24'0 0.0
2014-Jul-18 08:34N 63°26' E 010°24'0 0.0
2014-Jul-18 07:34N 63°26' E 010°24'0 0.0
2014-Jul-18 06:34N 63°26' E 010°24'  

Dump ship's entire track history